createdAt,value
2019-04-21T00:00:55.398Z,57.80
2019-04-21T00:03:28.756Z,57.70
2019-04-21T00:06:08.911Z,59.20
2019-04-21T00:08:41.878Z,60.00
2019-04-21T00:11:18.579Z,59.10
2019-04-21T00:13:43.900Z,60.00
2019-04-21T00:16:05.128Z,60.60
2019-04-21T00:18:49.871Z,61.60
2019-04-21T00:21:24.396Z,61.50
2019-04-21T00:24:01.306Z,62.40
2019-04-21T00:26:40.215Z,63.10
2019-04-21T00:29:16.548Z,61.30
2019-04-21T00:31:40.809Z,63.00
2019-04-21T00:33:55.010Z,65.20
2019-04-21T00:36:33.428Z,67.30
2019-04-21T00:39:31.363Z,70.80
2019-04-21T00:41:50.583Z,76.20
2019-04-21T00:44:12.671Z,76.00
2019-04-21T00:46:50.248Z,75.40
2019-04-21T00:49:19.685Z,74.80
2019-04-21T00:52:33.306Z,73.70
2019-04-21T00:55:01.088Z,72.50
2019-04-21T00:57:35.685Z,72.70
2019-04-21T01:00:03.831Z,75.60
2019-04-21T01:02:36.419Z,72.60
2019-04-21T01:05:04.910Z,73.80
2019-04-21T01:07:31.732Z,73.90
2019-04-21T01:09:58.949Z,74.70
2019-04-21T01:12:37.484Z,72.30
2019-04-21T01:15:16.720Z,70.50
2019-04-21T01:17:44.654Z,71.60
2019-04-21T01:20:06.495Z,70.80
2019-04-21T01:22:22.440Z,69.20
2019-04-21T01:25:01.302Z,68.40
2019-04-21T01:27:48.532Z,68.40
2019-04-21T01:30:18.841Z,67.30
2019-04-21T01:32:48.359Z,70.40
2019-04-21T01:35:21.517Z,72.60
2019-04-21T01:38:06.765Z,72.90
2019-04-21T01:40:31.959Z,72.00
2019-04-21T01:42:55.745Z,72.10
2019-04-21T01:45:31.815Z,73.00
2019-04-21T01:48:01.142Z,71.50
2019-04-21T01:50:36.341Z,72.10
2019-04-21T01:53:24.384Z,73.70
2019-04-21T01:56:11.888Z,74.00
2019-04-21T01:58:39.797Z,73.90
2019-04-21T02:01:15.975Z,73.80
2019-04-21T02:06:27.509Z,76.60
2019-04-21T02:08:56.074Z,77.20
2019-04-21T02:11:31.036Z,79.30
2019-04-21T02:14:05.428Z,81.40
2019-04-21T02:16:34.025Z,81.60
2019-04-21T02:18:58.469Z,79.50
2019-04-21T02:21:30.470Z,78.30
2019-04-21T02:24:11.873Z,78.20
2019-04-21T02:26:41.187Z,77.90
2019-04-21T02:29:18.866Z,77.90
2019-04-21T02:32:00.350Z,77.40
2019-04-21T02:34:38.297Z,78.10
2019-04-21T02:37:17.720Z,77.40
2019-04-21T02:42:02.085Z,80.40
2019-04-21T02:44:39.306Z,79.70
2019-04-21T02:46:54.364Z,81.00
2019-04-21T02:49:50.778Z,81.00
2019-04-21T02:52:14.114Z,79.70
2019-04-21T02:57:15.834Z,81.10
2019-04-21T03:00:07.738Z,81.20
2019-04-21T03:02:55.391Z,81.70
2019-04-21T03:05:48.737Z,81.30
2019-04-21T03:10:54.908Z,82.70
2019-04-21T03:13:21.787Z,83.40
2019-04-21T03:18:24.369Z,83.20
2019-04-21T03:21:00.163Z,82.80
2019-04-21T03:23:38.240Z,83.40
2019-04-21T03:26:00.938Z,84.10
2019-04-21T03:28:32.346Z,83.90
2019-04-21T03:31:25.183Z,84.10
2019-04-21T03:36:33.383Z,87.20
2019-04-21T03:38:39.105Z,88.30
2019-04-21T03:41:15.986Z,87.90
2019-04-21T03:43:44.622Z,89.30
2019-04-21T03:46:08.202Z,90.10
2019-04-21T03:49:34.858Z,90.80
2019-04-21T03:51:21.441Z,89.70
2019-04-21T03:53:46.176Z,90.00
2019-04-21T03:56:42.408Z,88.40
2019-04-21T03:58:54.243Z,87.90
2019-04-21T04:01:44.482Z,87.90
2019-04-21T04:07:06.126Z,89.20
2019-04-21T04:12:04.731Z,90.70
2019-04-21T04:14:44.389Z,91.40
2019-04-21T04:17:11.822Z,91.60
2019-04-21T04:19:40.135Z,91.60
2019-04-21T04:22:14.756Z,91.40
2019-04-21T04:24:50.181Z,91.20
2019-04-21T04:27:33.646Z,91.70
2019-04-21T04:29:51.529Z,92.10
2019-04-21T04:32:23.180Z,92.30
2019-04-21T04:35:02.120Z,92.10
2019-04-21T04:37:32.959Z,92.60
2019-04-21T04:40:14.546Z,92.40
2019-04-21T04:42:55.903Z,92.20
2019-04-21T04:48:14.498Z,92.50
2019-04-21T04:50:47.419Z,92.40
2019-04-21T04:53:07.675Z,92.40
2019-04-21T04:55:39.524Z,92.50
2019-04-21T04:58:16.101Z,91.70
2019-04-21T05:03:15.592Z,92.10
2019-04-21T05:06:46.156Z,91.90
2019-04-21T05:09:25.262Z,92.50
2019-04-21T05:16:47.006Z,93.30
2019-04-21T05:22:08.226Z,92.90
2019-04-21T05:24:14.999Z,92.40
2019-04-21T05:26:44.798Z,92.70
2019-04-21T05:29:11.100Z,92.20
2019-04-21T05:32:01.461Z,92.40
2019-04-21T05:34:31.621Z,92.10
2019-04-21T05:37:21.964Z,92.10
2019-04-21T05:39:58.015Z,91.60
2019-04-21T05:42:31.758Z,91.40
2019-04-21T05:45:07.849Z,90.90
2019-04-21T05:47:55.906Z,90.60
2019-04-21T05:50:16.698Z,91.30
2019-04-21T05:52:51.404Z,91.40
2019-04-21T05:55:33.732Z,91.30
2019-04-21T05:57:59.973Z,91.50
2019-04-21T06:00:54.803Z,91.80
2019-04-21T06:03:09.967Z,92.60
2019-04-21T06:05:47.869Z,93.40
2019-04-21T06:08:13.199Z,92.30
2019-04-21T06:13:22.189Z,92.60
2019-04-21T06:15:54.781Z,92.70
2019-04-21T06:18:20.312Z,93.10
2019-04-21T06:20:47.719Z,94.00
2019-04-21T06:23:25.461Z,92.60
2019-04-21T06:28:30.536Z,93.10
2019-04-21T06:31:06.119Z,93.60
2019-04-21T06:33:36.354Z,94.10
2019-04-21T06:39:01.737Z,94.10
2019-04-21T06:41:28.131Z,92.50
2019-04-21T06:43:56.334Z,90.00
2019-04-21T06:46:26.464Z,88.30
2019-04-21T06:51:27.950Z,91.00
2019-04-21T06:56:37.610Z,90.30
2019-04-21T06:59:01.465Z,88.60
2019-04-21T07:01:36.035Z,88.20
2019-04-21T07:04:11.845Z,85.80
2019-04-21T07:06:44.091Z,83.80
2019-04-21T07:09:15.860Z,86.20
2019-04-21T07:11:36.817Z,86.10
2019-04-21T07:14:27.268Z,87.20
2019-04-21T07:16:48.044Z,85.60
2019-04-21T07:19:25.726Z,84.70
2019-04-21T07:21:46.871Z,83.90
2019-04-21T07:26:51.303Z,81.20
2019-04-21T07:29:39.493Z,79.40
2019-04-21T07:32:01.212Z,80.20
2019-04-21T07:34:31.657Z,73.90
2019-04-21T07:39:29.742Z,72.90
2019-04-21T07:41:53.999Z,73.20
2019-04-21T07:44:30.501Z,72.50
2019-04-21T07:46:57.356Z,73.70
2019-04-21T07:52:37.689Z,72.40
2019-04-21T07:57:31.646Z,68.20
2019-04-21T08:02:46.086Z,67.60
2019-04-21T08:05:19.883Z,68.80
2019-04-21T08:07:52.727Z,65.30
2019-04-21T08:10:13.972Z,66.00
2019-04-21T08:12:44.735Z,65.80
2019-04-21T08:15:23.633Z,64.80
2019-04-21T08:17:48.989Z,59.30
2019-04-21T08:20:18.719Z,57.60
2019-04-21T08:23:12.994Z,62.10
2019-04-21T08:25:30.797Z,61.40
2019-04-21T08:27:59.892Z,60.40
2019-04-21T08:30:31.752Z,60.10
2019-04-21T08:33:14.454Z,58.50
2019-04-21T08:38:08.669Z,60.40
2019-04-21T08:43:08.814Z,58.50
2019-04-21T08:45:45.224Z,57.10
2019-04-21T08:48:17.098Z,57.50
2019-04-21T08:50:47.621Z,59.40
2019-04-21T08:53:13.929Z,56.40
2019-04-21T08:56:16.444Z,56.20
2019-04-21T08:58:55.948Z,56.80
2019-04-21T09:01:43.020Z,57.10
2019-04-21T09:04:18.503Z,55.20
2019-04-21T09:07:00.971Z,53.80
2019-04-21T09:09:26.957Z,55.40
2019-04-21T09:11:55.269Z,53.30
2019-04-21T09:14:28.849Z,53.80
2019-04-21T09:16:53.682Z,53.30
2019-04-21T09:19:38.518Z,52.60
2019-04-21T09:22:03.877Z,51.50
2019-04-21T09:24:26.938Z,52.80
2019-04-21T09:26:57.979Z,51.10
2019-04-21T09:29:26.574Z,51.60
2019-04-21T09:31:48.509Z,51.50
2019-04-21T09:34:24.849Z,47.60
2019-04-21T09:36:54.896Z,48.80
2019-04-21T09:39:26.260Z,46.70
2019-04-21T09:41:57.684Z,49.10
2019-04-21T09:44:32.927Z,46.20
2019-04-21T09:47:01.024Z,46.20
2019-04-21T09:49:31.677Z,47.00
2019-04-21T09:52:02.248Z,47.70
2019-04-21T09:54:40.878Z,47.70
2019-04-21T09:57:10.585Z,46.40
2019-04-21T09:59:40.675Z,46.80
2019-04-21T10:02:17.485Z,46.80
2019-04-21T10:04:40.890Z,44.60
2019-04-21T10:07:22.477Z,45.60
2019-04-21T10:09:44.078Z,43.60
2019-04-21T10:12:16.146Z,41.10
2019-04-21T10:14:47.356Z,42.60
2019-04-21T10:17:37.458Z,39.70
2019-04-21T10:20:09.807Z,39.30
2019-04-21T10:22:41.368Z,40.90
2019-04-21T10:25:12.631Z,41.30
2019-04-21T10:27:43.169Z,39.10
2019-04-21T10:30:14.171Z,37.70
2019-04-21T10:32:44.137Z,39.90
2019-04-21T10:35:15.273Z,41.10
2019-04-21T10:37:58.175Z,41.10
2019-04-21T10:40:18.292Z,41.40
2019-04-21T10:42:48.316Z,37.90
2019-04-21T10:45:19.003Z,39.10
2019-04-21T10:47:49.403Z,39.70
2019-04-21T10:50:20.423Z,40.00
2019-04-21T10:53:18.881Z,38.00
2019-04-21T10:56:04.145Z,41.10
2019-04-21T10:58:46.399Z,41.60
2019-04-21T11:01:23.028Z,39.40
2019-04-21T11:04:07.482Z,39.60
2019-04-21T11:06:38.809Z,38.40
2019-04-21T11:09:10.697Z,37.90
2019-04-21T11:11:44.562Z,37.80
2019-04-21T11:14:13.423Z,36.90
2019-04-21T11:16:47.232Z,37.90
2019-04-21T11:19:15.966Z,37.00
2019-04-21T11:21:47.070Z,35.40
2019-04-21T11:24:18.140Z,36.70
2019-04-21T11:26:49.591Z,38.20
2019-04-21T11:29:21.261Z,39.00
2019-04-21T11:31:51.418Z,36.00
2019-04-21T11:34:21.383Z,37.30
2019-04-21T11:36:52.348Z,35.60
2019-04-21T11:39:35.549Z,37.10
2019-04-21T11:41:57.577Z,34.20
2019-04-21T11:44:29.060Z,33.80
2019-04-21T11:47:00.452Z,34.90
2019-04-21T11:49:32.393Z,34.80
2019-04-21T11:52:02.954Z,33.90
2019-04-21T11:54:32.988Z,35.30
2019-04-21T11:57:11.815Z,33.90
2019-04-21T11:59:35.652Z,34.50
2019-04-21T12:02:05.981Z,35.80
2019-04-21T12:04:35.945Z,31.90
2019-04-21T12:07:07.086Z,32.00
2019-04-21T12:09:37.641Z,33.10
2019-04-21T12:12:09.517Z,32.30
2019-04-21T12:14:39.830Z,32.40
2019-04-21T12:17:10.048Z,30.90
2019-04-21T12:19:40.905Z,31.00
2019-04-21T12:22:20.675Z,31.10
2019-04-21T12:24:43.148Z,33.30
2019-04-21T12:27:14.051Z,33.60
2019-04-21T12:29:44.144Z,30.30
2019-04-21T12:32:35.893Z,30.00
2019-04-21T12:35:10.063Z,32.30
2019-04-21T12:37:40.658Z,34.10
2019-04-21T12:40:12.588Z,32.00
2019-04-21T12:42:45.489Z,33.30
2019-04-21T12:45:17.299Z,33.40
2019-04-21T12:47:50.257Z,32.40
2019-04-21T12:50:21.527Z,33.10
2019-04-21T12:52:51.695Z,31.40
2019-04-21T12:55:26.143Z,31.90
2019-04-21T12:57:53.506Z,30.10
2019-04-21T13:00:24.820Z,33.60
2019-04-21T13:02:55.780Z,35.40
2019-04-21T13:05:25.978Z,32.60
2019-04-21T13:07:57.512Z,34.30
2019-04-21T13:10:28.436Z,32.10
2019-04-21T13:12:59.752Z,32.10
2019-04-21T13:15:29.847Z,32.70
2019-04-21T13:18:00.505Z,33.90
2019-04-21T13:20:30.608Z,34.00
2019-04-21T13:23:01.813Z,32.90
2019-04-21T13:25:32.205Z,34.00
2019-04-21T13:28:02.904Z,33.90
2019-04-21T13:30:33.008Z,33.70
2019-04-21T13:33:03.259Z,32.10
2019-04-21T13:35:35.114Z,32.30
2019-04-21T13:38:17.294Z,31.10
2019-04-21T13:41:22.841Z,32.10
2019-04-21T13:43:37.139Z,34.20
2019-04-21T13:46:08.040Z,33.40
2019-04-21T13:48:38.143Z,33.20
2019-04-21T13:51:09.125Z,32.70
2019-04-21T13:53:39.944Z,30.90
2019-04-21T13:56:10.786Z,31.00
2019-04-21T13:58:42.171Z,33.00
2019-04-21T14:01:13.723Z,34.60
2019-04-21T14:03:44.053Z,30.90
2019-04-21T14:06:14.206Z,33.30
2019-04-21T14:08:51.181Z,33.30
2019-04-21T14:11:21.198Z,32.30
2019-04-21T14:13:52.235Z,33.10
2019-04-21T14:16:22.412Z,33.60
2019-04-21T14:18:52.406Z,33.90
2019-04-21T14:21:23.357Z,34.20
2019-04-21T14:23:54.593Z,33.50
2019-04-21T14:26:26.689Z,31.40
2019-04-21T14:28:56.925Z,31.40
2019-04-21T14:31:28.329Z,32.30
2019-04-21T14:33:59.690Z,32.80
2019-04-21T14:36:30.727Z,31.80
2019-04-21T14:39:02.819Z,32.40
2019-04-21T14:41:35.774Z,31.40
2019-04-21T14:44:06.880Z,32.90
2019-04-21T14:46:43.058Z,32.60
2019-04-21T14:49:19.426Z,32.40
2019-04-21T14:51:59.293Z,32.90
2019-04-21T14:54:48.844Z,32.60
2019-04-21T14:57:19.025Z,31.30
2019-04-21T14:59:49.105Z,31.10
2019-04-21T15:02:20.232Z,31.80
2019-04-21T15:04:51.500Z,31.20
2019-04-21T15:07:21.517Z,28.70
2019-04-21T15:10:02.436Z,29.80
2019-04-21T15:12:23.615Z,29.90
2019-04-21T15:14:53.729Z,28.90
2019-04-21T15:17:26.131Z,28.80
2019-04-21T15:20:04.135Z,28.40
2019-04-21T15:22:28.387Z,30.00
2019-04-21T15:24:58.538Z,31.90
2019-04-21T15:27:28.590Z,29.10
2019-04-21T15:29:58.559Z,28.80
2019-04-21T15:32:28.730Z,28.60
2019-04-21T15:34:58.614Z,27.60
2019-04-21T15:37:28.595Z,27.90
2019-04-21T15:40:02.045Z,28.00
2019-04-21T15:42:30.652Z,28.30
2019-04-21T15:45:02.915Z,28.80
2019-04-21T15:47:33.798Z,31.10
2019-04-21T15:50:11.986Z,33.60
2019-04-21T15:52:40.013Z,34.00
2019-04-21T15:55:14.842Z,33.80
2019-04-21T15:57:58.605Z,36.20
2019-04-21T16:00:42.619Z,34.30
2019-04-21T16:03:13.023Z,35.50
2019-04-21T16:05:44.459Z,34.40
2019-04-21T16:08:14.677Z,33.90
2019-04-21T16:10:50.652Z,32.80
2019-04-21T16:13:16.231Z,33.60
2019-04-21T16:15:46.366Z,34.00
2019-04-21T16:18:16.443Z,35.10
2019-04-21T16:20:48.023Z,34.50
2019-04-21T16:23:18.365Z,35.80
2019-04-21T16:25:50.771Z,36.30
2019-04-21T16:28:21.667Z,37.20
2019-04-21T16:30:52.216Z,36.70
2019-04-21T16:33:23.165Z,37.00
2019-04-21T16:35:53.832Z,36.80
2019-04-21T16:38:23.738Z,36.10
2019-04-21T16:40:58.229Z,35.00
2019-04-21T16:43:26.968Z,34.90
2019-04-21T16:45:59.044Z,35.60
2019-04-21T16:48:29.076Z,37.10
2019-04-21T16:50:59.543Z,37.60
2019-04-21T16:53:55.706Z,38.00
2019-04-21T16:56:33.192Z,38.30
2019-04-21T16:59:08.602Z,38.20
2019-04-21T17:01:38.727Z,37.70
2019-04-21T17:04:08.678Z,38.50
2019-04-21T17:06:38.988Z,39.00
2019-04-21T17:09:10.562Z,39.90
2019-04-21T17:11:43.641Z,40.70
2019-04-21T17:14:34.621Z,40.30
2019-04-21T17:17:14.027Z,39.60
2019-04-21T17:19:25.338Z,40.30
2019-04-21T17:21:48.110Z,41.00
2019-04-21T17:24:20.149Z,41.80
2019-04-21T17:26:51.371Z,42.50
2019-04-21T17:29:22.741Z,42.10
2019-04-21T17:31:53.280Z,42.60
2019-04-21T17:34:27.754Z,42.60
2019-04-21T17:36:55.244Z,42.60
2019-04-21T17:39:25.262Z,43.50
2019-04-21T17:42:05.229Z,44.20
2019-04-21T17:44:27.717Z,45.00
2019-04-21T17:47:03.535Z,45.10
2019-04-21T17:49:30.897Z,45.60
2019-04-21T17:52:35.192Z,46.50
2019-04-21T17:55:16.855Z,47.80
2019-04-21T17:57:59.425Z,47.10
2019-04-21T18:00:49.454Z,47.20
2019-04-21T18:03:01.950Z,48.00
2019-04-21T18:05:39.378Z,49.00
2019-04-21T18:08:07.051Z,49.40
2019-04-21T18:10:36.080Z,49.80
2019-04-21T18:12:59.157Z,50.30
2019-04-21T18:15:42.409Z,50.80
2019-04-21T18:17:56.494Z,51.60
2019-04-21T18:20:30.107Z,51.10
2019-04-21T18:23:35.156Z,51.60
2019-04-21T18:25:59.994Z,52.20
2019-04-21T18:28:24.349Z,52.90
2019-04-21T18:31:00.508Z,53.20
2019-04-21T18:33:35.528Z,54.10
2019-04-21T18:36:34.637Z,54.00
2019-04-21T18:39:43.651Z,54.60
2019-04-21T18:42:26.281Z,55.10
2019-04-21T18:45:44.659Z,55.10
2019-04-21T18:48:04.938Z,55.60
2019-04-21T18:50:45.993Z,56.10
2019-04-21T18:53:23.829Z,56.20
2019-04-21T18:55:48.190Z,56.60
2019-04-21T18:58:15.846Z,56.50
2019-04-21T19:00:46.345Z,57.10
2019-04-21T19:03:25.319Z,58.10
2019-04-21T19:05:54.411Z,58.20
2019-04-21T19:08:44.313Z,58.40
2019-04-21T19:11:13.304Z,58.80
2019-04-21T19:14:17.692Z,58.60
2019-04-21T19:16:43.180Z,59.00
2019-04-21T19:19:24.928Z,58.90
2019-04-21T19:21:28.408Z,59.10
2019-04-21T19:24:18.617Z,59.20
2019-04-21T19:26:49.814Z,58.90
2019-04-21T19:29:22.804Z,59.00
2019-04-21T19:31:44.679Z,59.10
2019-04-21T19:34:07.713Z,59.60
2019-04-21T19:36:32.692Z,59.60
2019-04-21T19:39:09.376Z,60.20
2019-04-21T19:41:51.968Z,60.20
2019-04-21T19:44:24.856Z,59.50
2019-04-21T19:47:01.343Z,60.50
2019-04-21T19:49:32.081Z,59.50
2019-04-21T19:51:53.282Z,59.60
2019-04-21T19:54:24.245Z,58.90
2019-04-21T19:56:47.063Z,57.60
2019-04-21T19:59:19.977Z,57.40
2019-04-21T20:01:51.273Z,57.40
2019-04-21T20:04:29.167Z,57.50
2019-04-21T20:07:02.767Z,58.00
2019-04-21T20:09:40.605Z,57.30
2019-04-21T20:12:10.635Z,58.10
2019-04-21T20:15:08.030Z,57.30
2019-04-21T20:17:11.202Z,57.80
2019-04-21T20:19:32.144Z,57.40
2019-04-21T20:22:03.136Z,57.60
2019-04-21T20:24:35.719Z,57.70
2019-04-21T20:27:13.632Z,58.00
2019-04-21T20:29:57.927Z,57.30
2019-04-21T20:32:35.250Z,56.90
2019-04-21T20:35:00.954Z,57.00
2019-04-21T20:37:26.457Z,56.40
2019-04-21T20:39:53.178Z,56.30
2019-04-21T20:42:27.990Z,57.00
2019-04-21T20:45:27.502Z,56.00
2019-04-21T20:47:28.682Z,55.40
2019-04-21T20:50:03.020Z,56.00
2019-04-21T20:52:41.738Z,56.30
2019-04-21T20:55:05.881Z,56.10
2019-04-21T20:57:40.841Z,56.50
2019-04-21T21:00:12.336Z,57.30
2019-04-21T21:02:53.499Z,57.50
2019-04-21T21:05:15.409Z,58.30
2019-04-21T21:08:11.418Z,59.00
2019-04-21T21:10:20.408Z,60.00
2019-04-21T21:12:57.559Z,60.50
2019-04-21T21:15:19.786Z,60.60
2019-04-21T21:18:11.737Z,60.70
2019-04-21T21:20:33.107Z,60.90
2019-04-21T21:22:58.450Z,61.40
2019-04-21T21:25:41.398Z,61.50
2019-04-21T21:27:58.895Z,62.40
2019-04-21T21:30:33.893Z,61.10
2019-04-21T21:33:11.241Z,61.50
2019-04-21T21:35:37.255Z,61.80
2019-04-21T21:38:13.480Z,62.60
2019-04-21T21:40:42.348Z,61.60
2019-04-21T21:43:01.539Z,61.20
2019-04-21T21:45:38.902Z,61.90
2019-04-21T21:48:20.791Z,62.30
2019-04-21T21:50:45.950Z,61.60
2019-04-21T21:53:10.493Z,62.10
2019-04-21T21:55:38.600Z,62.20
2019-04-21T21:58:10.436Z,63.00
2019-04-21T22:00:43.153Z,62.40
2019-04-21T22:03:23.414Z,62.90
2019-04-21T22:05:57.018Z,65.70
2019-04-21T22:08:18.493Z,68.40
2019-04-21T22:10:49.406Z,69.90
2019-04-21T22:13:21.943Z,68.60
2019-04-21T22:15:56.685Z,68.40
2019-04-21T22:18:39.309Z,68.60
2019-04-21T22:21:07.724Z,68.20
2019-04-21T22:23:39.869Z,69.20
2019-04-21T22:25:58.285Z,70.10
2019-04-21T22:28:29.621Z,69.40
2019-04-21T22:31:01.071Z,70.10
2019-04-21T22:33:38.281Z,69.90
2019-04-21T22:36:17.979Z,69.60
2019-04-21T22:38:50.986Z,69.20
2019-04-21T22:41:19.232Z,69.20
2019-04-21T22:43:43.808Z,69.40
2019-04-21T22:46:12.347Z,68.80
2019-04-21T22:48:47.682Z,69.90
2019-04-21T22:51:20.490Z,69.30
2019-04-21T22:53:48.839Z,70.80
2019-04-21T22:56:23.620Z,69.50
2019-04-21T22:58:49.390Z,68.10
2019-04-21T23:01:26.708Z,69.60
2019-04-21T23:03:56.888Z,68.90
2019-04-21T23:06:27.316Z,68.80
2019-04-21T23:08:55.159Z,68.90
2019-04-21T23:11:28.029Z,69.10
2019-04-21T23:14:02.511Z,69.30
2019-04-21T23:16:33.677Z,69.40
2019-04-21T23:19:20.115Z,69.30
2019-04-21T23:21:53.802Z,70.40
2019-04-21T23:24:22.187Z,69.70
2019-04-21T23:26:48.836Z,71.50
2019-04-21T23:29:25.803Z,70.40
2019-04-21T23:31:57.762Z,70.10
2019-04-21T23:34:19.585Z,71.30
2019-04-21T23:36:54.365Z,72.40
2019-04-21T23:39:22.760Z,73.60
2019-04-21T23:41:51.102Z,73.40
2019-04-21T23:44:20.223Z,73.30
2019-04-21T23:46:54.875Z,73.00
2019-04-21T23:49:35.370Z,73.40
2019-04-21T23:52:00.863Z,73.50
2019-04-21T23:54:25.273Z,73.60
2019-04-21T23:56:55.912Z,73.10
2019-04-21T23:59:30.203Z,74.40
